SCOT11 YBOK-YBOK
Flight info
| Callsign | SCOT11 |
|---|---|
| Flight time | 0h 24m |
| Altitude | 4500 |
| Route | DCT OK DCT OK |
| Aircraft | H135/L-SDFGRY/LB1 |
Departure
| Time | 2026-04-19 08:09 |
|---|---|
| Airport | Oakey Army Aviation Centre (YBOK) |
Arrival
| Time | 2026-04-19 08:33 |
|---|---|
| Airport | Oakey Army Aviation Centre (YBOK) |
| Time | Latitude | Longitude | Altitude | Speed | Heading |
|---|---|---|---|---|---|
| 2026-04-19 08:02 | -27.41250 | 151.72991 | 1338 ft | 0 kts | 189° |
| 2026-04-19 08:08 | -27.41248 | 151.72987 | 1360 ft | 0 kts | 139° |
| 2026-04-19 08:08 | -27.41257 | 151.72983 | 1435 ft | 1 kts | 111° |
| 2026-04-19 08:08 | -27.41147 | 151.73010 | 1543 ft | 49 kts | 345° |
| 2026-04-19 08:08 | -27.40709 | 151.72970 | 1730 ft | 79 kts | 1° |
| 2026-04-19 08:09 | -27.40420 | 151.72980 | 1793 ft | 98 kts | 1° |
| 2026-04-19 08:09 | -27.39894 | 151.72986 | 1899 ft | 118 kts | 1° |
| 2026-04-19 08:09 | -27.39034 | 151.73009 | 2116 ft | 129 kts | 1° |
| 2026-04-19 08:09 | -27.38117 | 151.72856 | 2233 ft | 140 kts | 333° |
| 2026-04-19 08:10 | -27.37400 | 151.72053 | 2154 ft | 155 kts | 301° |
| 2026-04-19 08:10 | -27.36890 | 151.70953 | 2141 ft | 155 kts | 299° |
| 2026-04-19 08:10 | -27.36202 | 151.70030 | 2142 ft | 156 kts | 317° |
| 2026-04-19 08:10 | -27.35285 | 151.69397 | 2213 ft | 155 kts | 335° |
| 2026-04-19 08:11 | -27.34262 | 151.69136 | 2463 ft | 147 kts | 1° |
| 2026-04-19 08:11 | -27.33323 | 151.69459 | 2740 ft | 139 kts | 33° |
| 2026-04-19 08:11 | -27.32653 | 151.70239 | 2859 ft | 141 kts | 57° |
| 2026-04-19 08:11 | -27.32023 | 151.71115 | 2682 ft | 154 kts | 44° |
| 2026-04-19 08:12 | -27.31129 | 151.71685 | 2323 ft | 144 kts | 31° |
| 2026-04-19 08:12 | -27.30237 | 151.72142 | 2212 ft | 138 kts | 27° |
| 2026-04-19 08:12 | -27.29556 | 151.72741 | 2251 ft | 132 kts | 95° |
| 2026-04-19 08:12 | -27.30210 | 151.72963 | 2302 ft | 132 kts | 238° |
| 2026-04-19 08:13 | -27.29855 | 151.72221 | 2351 ft | 123 kts | 341° |
| 2026-04-19 08:13 | -27.29150 | 151.71745 | 2321 ft | 119 kts | 321° |
| 2026-04-19 08:13 | -27.28570 | 151.71014 | 2140 ft | 133 kts | 301° |
| 2026-04-19 08:13 | -27.28283 | 151.70051 | 2046 ft | 131 kts | 262° |
| 2026-04-19 08:14 | -27.28834 | 151.69277 | 1978 ft | 128 kts | 230° |
| 2026-04-19 08:14 | -27.27783 | 151.69312 | 1831 ft | 134 kts | 47° |
| 2026-04-19 08:14 | -27.27218 | 151.70041 | 2104 ft | 124 kts | 53° |
| 2026-04-19 08:15 | -27.26671 | 151.70796 | 2443 ft | 122 kts | 53° |
| 2026-04-19 08:15 | -27.26153 | 151.71525 | 2710 ft | 127 kts | 55° |
| 2026-04-19 08:15 | -27.25757 | 151.72448 | 2780 ft | 140 kts | 79° |
| 2026-04-19 08:15 | -27.25728 | 151.73558 | 2836 ft | 144 kts | 96° |
| 2026-04-19 08:16 | -27.25910 | 151.74688 | 2718 ft | 152 kts | 104° |
| 2026-04-19 08:16 | -27.26211 | 151.75759 | 2822 ft | 136 kts | 114° |
| 2026-04-19 08:16 | -27.26787 | 151.76633 | 2613 ft | 147 kts | 142° |
| 2026-04-19 08:16 | -27.27676 | 151.77217 | 2518 ft | 145 kts | 152° |
| 2026-04-19 08:17 | -27.28576 | 151.77619 | 2678 ft | 134 kts | 161° |
| 2026-04-19 08:17 | -27.29488 | 151.77823 | 2680 ft | 134 kts | 171° |
| 2026-04-19 08:17 | -27.30440 | 151.77914 | 2623 ft | 140 kts | 174° |
| 2026-04-19 08:17 | -27.31437 | 151.78024 | 2508 ft | 144 kts | 170° |
| 2026-04-19 08:18 | -27.32433 | 151.78277 | 2367 ft | 151 kts | 169° |
| 2026-04-19 08:18 | -27.33423 | 151.78587 | 2473 ft | 138 kts | 167° |
| 2026-04-19 08:18 | -27.34317 | 151.78840 | 2642 ft | 132 kts | 171° |
| 2026-04-19 08:18 | -27.35225 | 151.78965 | 2742 ft | 132 kts | 180° |
| 2026-04-19 08:19 | -27.36167 | 151.78923 | 2767 ft | 140 kts | 188° |
| 2026-04-19 08:19 | -27.37153 | 151.78792 | 2859 ft | 144 kts | 191° |
| 2026-04-19 08:19 | -27.38152 | 151.78601 | 2991 ft | 144 kts | 194° |
| 2026-04-19 08:19 | -27.39119 | 151.78355 | 3165 ft | 141 kts | 198° |
| 2026-04-19 08:20 | -27.40063 | 151.78053 | 3314 ft | 139 kts | 199° |
| 2026-04-19 08:20 | -27.40995 | 151.77724 | 3450 ft | 138 kts | 197° |
| 2026-04-19 08:20 | -27.41933 | 151.77523 | 3539 ft | 140 kts | 168° |
| 2026-04-19 08:20 | -27.42396 | 151.78366 | 3679 ft | 138 kts | 79° |
| 2026-04-19 08:21 | -27.41754 | 151.79069 | 3880 ft | 131 kts | 34° |
| 2026-04-19 08:21 | -27.40950 | 151.79592 | 3905 ft | 137 kts | 28° |
| 2026-04-19 08:21 | -27.40056 | 151.80032 | 3858 ft | 144 kts | 20° |
| 2026-04-19 08:21 | -27.39053 | 151.80337 | 3749 ft | 151 kts | 13° |
| 2026-04-19 08:22 | -27.37997 | 151.80474 | 3671 ft | 154 kts | 8° |
| 2026-04-19 08:22 | -27.36903 | 151.80526 | 3517 ft | 159 kts | 7° |
| 2026-04-19 08:22 | -27.35878 | 151.80569 | 3867 ft | 132 kts | 11° |
| 2026-04-19 08:22 | -27.35059 | 151.80569 | 4159 ft | 109 kts | 352° |
| 2026-04-19 08:23 | -27.34421 | 151.80252 | 4461 ft | 93 kts | 333° |
| 2026-04-19 08:23 | -27.33913 | 151.79868 | 4726 ft | 84 kts | 328° |
| 2026-04-19 08:23 | -27.33439 | 151.79466 | 4914 ft | 91 kts | 320° |
| 2026-04-19 08:23 | -27.32988 | 151.78913 | 5066 ft | 100 kts | 315° |
| 2026-04-19 08:24 | -27.32461 | 151.78308 | 5030 ft | 116 kts | 313° |
| 2026-04-19 08:24 | -27.31915 | 151.77594 | 4974 ft | 125 kts | 304° |
| 2026-04-19 08:24 | -27.31458 | 151.76711 | 4807 ft | 134 kts | 293° |
| 2026-04-19 08:24 | -27.31133 | 151.75699 | 4539 ft | 143 kts | 283° |
| 2026-04-19 08:25 | -27.30944 | 151.74563 | 4259 ft | 151 kts | 277° |
| 2026-04-19 08:25 | -27.31012 | 151.73381 | 3888 ft | 152 kts | 251° |
| 2026-04-19 08:25 | -27.31386 | 151.72743 | 3706 ft | 146 kts | 227° |
| 2026-04-19 08:25 | -27.32291 | 151.72450 | 3588 ft | 135 kts | 177° |
| 2026-04-19 08:26 | -27.33173 | 151.72763 | 3393 ft | 131 kts | 162° |
| 2026-04-19 08:26 | -27.34260 | 151.73209 | 3173 ft | 120 kts | 162° |
| 2026-04-19 08:26 | -27.34578 | 151.73357 | 3153 ft | 116 kts | 160° |
| 2026-04-19 08:29 | -27.34867 | 151.73504 | 3081 ft | 117 kts | 150° |
| 2026-04-19 08:29 | -27.35557 | 151.74043 | 2783 ft | 128 kts | 148° |
| 2026-04-19 08:29 | -27.36325 | 151.74539 | 2634 ft | 127 kts | 174° |
| 2026-04-19 08:29 | -27.37159 | 151.74689 | 2487 ft | 118 kts | 178° |
| 2026-04-19 08:30 | -27.37956 | 151.74724 | 2337 ft | 110 kts | 185° |
| 2026-04-19 08:30 | -27.38618 | 151.74661 | 2153 ft | 81 kts | 197° |
| 2026-04-19 08:30 | -27.39177 | 151.74441 | 1990 ft | 93 kts | 201° |
| 2026-04-19 08:30 | -27.39770 | 151.74145 | 1833 ft | 93 kts | 211° |
| 2026-04-19 08:31 | -27.40249 | 151.73650 | 1677 ft | 91 kts | 234° |
| 2026-04-19 08:31 | -27.40421 | 151.73073 | 1715 ft | 76 kts | 324° |
| 2026-04-19 08:31 | -27.40005 | 151.73080 | 1743 ft | 61 kts | 73° |
| 2026-04-19 08:31 | -27.39814 | 151.73535 | 1640 ft | 72 kts | 108° |
| 2026-04-19 08:32 | -27.40221 | 151.73671 | 1559 ft | 76 kts | 223° |
| 2026-04-19 08:32 | -27.40509 | 151.73188 | 1515 ft | 72 kts | 262° |
| 2026-04-19 08:32 | -27.40195 | 151.72913 | 1507 ft | 68 kts | 32° |
| 2026-04-19 08:32 | -27.39873 | 151.73242 | 1528 ft | 59 kts | 57° |
| 2026-04-19 08:33 | -27.39713 | 151.73656 | 1530 ft | 59 kts | 95° |
| 2026-04-19 08:33 | -27.39994 | 151.73891 | 1488 ft | 63 kts | 197° |
| 2026-04-19 08:33 | -27.40275 | 151.73609 | 1436 ft | 37 kts | 241° |
| 2026-04-19 08:33 | -27.40375 | 151.73467 | 1390 ft | 10 kts | 233° |
| 2026-04-19 08:34 | -27.40391 | 151.73437 | 1353 ft | 2 kts | 255° |
| 2026-04-19 08:34 | -27.40392 | 151.73433 | 1361 ft | 1 kts | 240° |
| 2026-04-19 08:34 | -27.40416 | 151.73394 | 1371 ft | 21 kts | 232° |
| 2026-04-19 08:34 | -27.40580 | 151.73132 | 1401 ft | 50 kts | 230° |
| 2026-04-19 08:35 | -27.40751 | 151.72861 | 1403 ft | 30 kts | 237° |
| 2026-04-19 08:35 | -27.40830 | 151.72736 | 1360 ft | 11 kts | 243° |
| 2026-04-19 08:35 | -27.40834 | 151.72716 | 1347 ft | 1 kts | 227° |
| 2026-04-19 08:35 | -27.40839 | 151.72711 | 1350 ft | 1 kts | 224° |
| 2026-04-19 08:36 | -27.40873 | 151.72696 | 1390 ft | 17 kts | 165° |
| 2026-04-19 08:36 | -27.40985 | 151.72837 | 1548 ft | 39 kts | 97° |
| 2026-04-19 08:36 | -27.41008 | 151.73216 | 1653 ft | 60 kts | 98° |
| 2026-04-19 08:36 | -27.41063 | 151.73760 | 1645 ft | 79 kts | 99° |
| 2026-04-19 08:37 | -27.41149 | 151.74422 | 1615 ft | 91 kts | 100° |
| 2026-04-19 08:37 | -27.41253 | 151.75149 | 1583 ft | 96 kts | 101° |
| 2026-04-19 08:37 | -27.41365 | 151.75891 | 1563 ft | 98 kts | 102° |
| 2026-04-19 08:37 | -27.41483 | 151.76643 | 1554 ft | 95 kts | 102° |
| 2026-04-19 08:38 | -27.41870 | 151.76904 | 1685 ft | 88 kts | 233° |
| 2026-04-19 08:38 | -27.41749 | 151.76223 | 1687 ft | 93 kts | 287° |
| 2026-04-19 08:38 | -27.41554 | 151.75501 | 1641 ft | 98 kts | 285° |
| 2026-04-19 08:38 | -27.41421 | 151.74795 | 1651 ft | 83 kts | 280° |
| 2026-04-19 08:39 | -27.41279 | 151.74306 | 1576 ft | 50 kts | 291° |
| 2026-04-19 08:39 | -27.41159 | 151.73980 | 1483 ft | 41 kts | 292° |
| 2026-04-19 08:39 | -27.41092 | 151.73694 | 1424 ft | 32 kts | 289° |
| 2026-04-19 08:39 | -27.41057 | 151.73462 | 1388 ft | 30 kts | 284° |
| 2026-04-19 08:40 | -27.41036 | 151.73250 | 1383 ft | 23 kts | 270° |
| 2026-04-19 08:40 | -27.41015 | 151.73110 | 1359 ft | 13 kts | 270° |
| 2026-04-19 08:40 | -27.40988 | 151.72981 | 1380 ft | 18 kts | 291° |
| 2026-04-19 08:40 | -27.40985 | 151.72877 | 1352 ft | 8 kts | 229° |
| 2026-04-19 08:41 | -27.41032 | 151.72846 | 1353 ft | 7 kts | 185° |
| 2026-04-19 08:41 | -27.41122 | 151.72828 | 1384 ft | 18 kts | 192° |
| 2026-04-19 08:41 | -27.41210 | 151.72903 | 1360 ft | 9 kts | 77° |
| 2026-04-19 08:41 | -27.41231 | 151.72922 | 1345 ft | 0 kts | 1° |
| 2026-04-19 08:42 | -27.41225 | 151.72923 | 1342 ft | 1 kts | 10° |
| 2026-04-19 08:42 | -27.41225 | 151.72922 | 1340 ft | 0 kts | 8° |